createdAt,value
2022-09-10T00:01:20.777Z,82.17
2022-09-10T00:03:50.148Z,82.97
2022-09-10T00:06:19.313Z,84.91
2022-09-10T00:08:47.728Z,86.20
2022-09-10T00:11:17.487Z,87.91
2022-09-10T00:13:45.180Z,87.36
2022-09-10T00:16:14.365Z,90.14
2022-09-10T00:18:42.669Z,90.33
2022-09-10T00:21:13.227Z,87.79
2022-09-10T00:23:40.873Z,88.83
2022-09-10T00:26:17.379Z,86.92
2022-09-10T00:28:45.051Z,86.24
2022-09-10T00:31:13.442Z,85.79
2022-09-10T00:33:42.017Z,85.52
2022-09-10T00:36:39.761Z,84.13
2022-09-10T00:39:15.999Z,84.01
2022-09-10T00:41:45.485Z,84.25
2022-09-10T00:44:48.344Z,83.69
2022-09-10T00:47:22.569Z,82.64
2022-09-10T00:49:54.987Z,83.39
2022-09-10T00:52:22.603Z,83.77
2022-09-10T01:30:56.995Z,85.19
2022-09-10T01:33:46.630Z,84.72
2022-09-10T01:36:17.360Z,85.50
2022-09-10T01:38:45.479Z,85.74
2022-09-10T01:41:13.777Z,86.34
2022-09-10T01:43:42.056Z,86.63
2022-09-10T01:46:20.575Z,87.32
2022-09-10T01:49:11.581Z,88.00
2022-09-10T01:52:08.462Z,88.37
2022-09-10T01:54:57.643Z,87.96
2022-09-10T01:57:42.173Z,87.40
2022-09-10T02:00:12.343Z,87.24
2022-09-10T02:02:51.743Z,88.08
2022-09-10T02:05:21.665Z,88.55
2022-09-10T02:07:52.315Z,88.39
2022-09-10T02:10:19.754Z,87.60
2022-09-10T02:12:47.445Z,88.42
2022-09-10T02:15:16.224Z,87.14
2022-09-10T02:17:43.580Z,86.57
2022-09-10T02:20:13.759Z,86.74
2022-09-10T02:22:48.835Z,86.23
2022-09-10T02:25:16.523Z,85.43
2022-09-10T02:27:44.631Z,86.33
2022-09-10T02:43:41.021Z,86.27
2022-09-10T03:19:40.148Z,83.19
2022-09-10T04:20:48.742Z,81.82
2022-09-10T04:23:16.918Z,82.48
2022-09-10T04:25:54.688Z,82.63
2022-09-10T04:28:24.346Z,81.56
2022-09-10T04:30:54.449Z,81.44
2022-09-10T04:33:24.663Z,81.58
2022-09-10T04:35:52.632Z,81.35
2022-09-10T04:38:21.119Z,81.12
2022-09-10T04:40:49.141Z,81.02
2022-09-10T04:43:21.956Z,80.00
2022-09-10T04:45:49.798Z,79.93
2022-09-10T04:48:23.854Z,79.78
2022-09-10T04:51:14.885Z,79.16
2022-09-10T04:53:40.994Z,79.17
2022-09-10T04:56:08.848Z,78.77
2022-09-10T04:58:39.183Z,78.62
2022-09-10T05:01:17.455Z,78.01
2022-09-10T05:03:46.703Z,78.39
2022-09-10T05:06:14.153Z,78.45
2022-09-10T05:08:45.620Z,78.78
2022-09-10T05:11:14.288Z,79.55
2022-09-10T05:13:43.135Z,79.37
2022-09-10T05:16:14.421Z,80.19
2022-09-10T05:18:42.324Z,80.33
2022-09-10T05:23:56.928Z,80.01
2022-09-10T05:26:24.757Z,80.54
2022-09-10T05:28:55.195Z,80.30
2022-09-10T05:31:23.029Z,79.35
2022-09-10T05:33:54.871Z,79.14
2022-09-10T05:36:24.332Z,79.42
2022-09-10T05:38:51.865Z,79.04
2022-09-10T05:41:23.929Z,78.94
2022-09-10T05:43:52.546Z,79.57
2022-09-10T05:46:20.236Z,77.99
2022-09-10T05:48:59.533Z,76.53
2022-09-10T05:51:31.968Z,77.16
2022-09-10T05:54:00.059Z,77.86
2022-09-10T05:56:28.294Z,77.24
2022-09-10T05:58:55.976Z,78.04
2022-09-10T06:01:23.704Z,78.85
2022-09-10T06:03:54.519Z,79.20
2022-09-10T06:06:22.270Z,79.95
2022-09-10T06:08:53.620Z,80.45
2022-09-10T06:11:28.106Z,79.79
2022-09-10T06:13:58.285Z,78.46
2022-09-10T06:16:26.324Z,77.24
2022-09-10T06:18:54.991Z,77.70
2022-09-10T06:21:28.751Z,77.09
2022-09-10T06:23:58.818Z,77.55
2022-09-10T06:26:26.709Z,76.91
2022-09-10T06:28:57.555Z,77.15
2022-09-10T06:31:25.448Z,76.67
2022-09-10T06:34:04.989Z,75.77
2022-09-10T06:36:34.154Z,74.82
2022-09-10T06:39:03.796Z,75.33
2022-09-10T06:41:32.343Z,75.75
2022-09-10T06:44:00.315Z,74.71
2022-09-10T06:47:10.734Z,74.04
2022-09-10T06:49:19.301Z,73.56
2022-09-10T06:51:50.437Z,72.21
2022-09-10T06:54:19.187Z,72.08
2022-09-10T06:56:48.992Z,72.14
2022-09-10T06:59:18.438Z,71.78
2022-09-10T07:01:49.310Z,72.25
2022-09-10T07:04:17.050Z,72.38
2022-09-10T07:06:46.095Z,71.21
2022-09-10T07:09:16.135Z,70.98
2022-09-10T07:11:45.484Z,71.30
2022-09-10T07:14:19.654Z,70.26
2022-09-10T07:16:47.839Z,69.97
2022-09-10T07:19:17.612Z,69.05
2022-09-10T07:21:49.461Z,68.39
2022-09-10T07:24:20.444Z,68.40
2022-09-10T07:26:54.505Z,67.61
2022-09-10T07:29:24.015Z,68.44
2022-09-10T07:31:52.802Z,68.19
2022-09-10T07:34:21.185Z,68.21
2022-09-10T07:36:48.949Z,68.67
2022-09-10T07:39:23.556Z,67.36
2022-09-10T07:41:53.872Z,67.52
2022-09-10T07:44:21.502Z,67.94
2022-09-10T07:46:50.255Z,67.85
2022-09-10T07:49:20.467Z,68.05
2022-09-10T07:51:59.156Z,68.28
2022-09-10T07:54:28.706Z,68.25
2022-09-10T07:56:56.687Z,67.93
2022-09-10T07:59:27.147Z,68.74
2022-09-10T08:01:55.597Z,68.63
2022-09-10T08:04:23.665Z,68.51
2022-09-10T08:06:51.853Z,68.49
2022-09-10T08:09:19.517Z,67.42
2022-09-10T08:11:47.146Z,67.43
2022-09-10T08:14:14.890Z,66.50
2022-09-10T08:16:44.582Z,66.24
2022-09-10T08:19:16.331Z,66.08
2022-09-10T08:21:45.792Z,64.80
2022-09-10T08:24:13.636Z,65.95
2022-09-10T08:26:42.367Z,65.40
2022-09-10T08:29:09.882Z,65.80
2022-09-10T08:31:38.871Z,64.97
2022-09-10T08:34:08.423Z,64.27
2022-09-10T08:36:38.505Z,65.21
2022-09-10T08:39:08.380Z,64.90
2022-09-10T08:41:38.766Z,64.93
2022-09-10T08:44:27.001Z,65.81
2022-09-10T08:47:04.548Z,66.29
2022-09-10T08:49:44.790Z,66.16
2022-09-10T08:52:23.783Z,65.14
2022-09-10T08:54:56.342Z,64.90
2022-09-10T08:57:28.343Z,65.33
2022-09-10T08:59:57.151Z,65.94
2022-09-10T09:02:49.897Z,65.02
2022-09-10T09:05:40.770Z,64.45
2022-09-10T09:08:16.430Z,64.62
2022-09-10T09:10:50.580Z,64.75
2022-09-10T09:13:26.714Z,65.12
2022-09-10T09:16:17.694Z,65.36
2022-09-10T09:19:23.537Z,65.07
2022-09-10T09:21:53.677Z,65.12
2022-09-10T09:24:33.575Z,65.14
2022-09-10T09:27:26.005Z,63.71
2022-09-10T09:30:03.965Z,63.54
2022-09-10T09:32:38.236Z,63.06
2022-09-10T09:35:09.322Z,63.50
2022-09-10T09:37:43.830Z,62.74
2022-09-10T09:40:15.181Z,62.44
2022-09-10T09:42:58.642Z,62.43
2022-09-10T09:45:43.349Z,61.11
2022-09-10T09:48:22.685Z,61.17
2022-09-10T09:50:56.562Z,59.64
2022-09-10T09:53:33.141Z,59.48
2022-09-10T09:56:24.482Z,58.56
2022-09-10T09:58:52.929Z,58.09
2022-09-10T10:01:24.311Z,57.91
2022-09-10T10:04:01.124Z,58.69
2022-09-10T10:06:36.177Z,59.38
2022-09-10T10:09:39.445Z,58.92
2022-09-10T10:12:09.053Z,58.66
2022-09-10T10:14:43.921Z,59.64
2022-09-10T10:17:31.420Z,59.78
2022-09-10T10:20:08.261Z,60.27
2022-09-10T10:22:38.423Z,61.01
2022-09-10T10:25:38.502Z,60.79
2022-09-10T10:28:21.448Z,60.54
2022-09-10T10:30:57.992Z,60.09
2022-09-10T10:33:33.311Z,60.01
2022-09-10T10:36:07.853Z,60.52
2022-09-10T10:38:43.950Z,61.06
2022-09-10T10:41:42.624Z,61.57
2022-09-10T10:44:55.699Z,60.69
2022-09-10T10:47:34.834Z,60.25
2022-09-10T10:50:19.861Z,61.28
2022-09-10T10:53:15.188Z,60.54
2022-09-10T10:55:56.956Z,60.65
2022-09-10T10:58:55.331Z,60.16
2022-09-10T11:01:33.389Z,59.95
2022-09-10T11:04:54.941Z,60.36
2022-09-10T11:07:39.572Z,60.04
2022-09-10T11:10:22.109Z,60.01
2022-09-10T11:13:24.719Z,59.80
2022-09-10T11:16:07.019Z,60.20
2022-09-10T11:18:42.990Z,60.78
2022-09-10T11:21:19.683Z,60.18
2022-09-10T11:23:57.421Z,59.38
2022-09-10T11:26:32.250Z,59.38
2022-09-10T11:29:33.820Z,59.85
2022-09-10T11:32:11.405Z,59.25
2022-09-10T11:34:51.678Z,59.21
2022-09-10T11:38:12.463Z,59.20
2022-09-10T11:41:14.783Z,59.42
2022-09-10T11:44:52.138Z,59.48
2022-09-10T11:47:35.906Z,59.37
2022-09-10T11:50:45.043Z,58.83
2022-09-10T11:53:24.421Z,58.97
2022-09-10T11:56:19.742Z,60.20
2022-09-10T11:59:06.293Z,62.99
2022-09-10T12:02:12.755Z,64.45
2022-09-10T12:04:54.281Z,65.95
2022-09-10T12:07:51.474Z,68.67
2022-09-10T12:10:32.272Z,70.08
2022-09-10T12:13:00.171Z,73.64
2022-09-10T12:15:34.174Z,75.10
2022-09-10T12:18:07.724Z,76.71
2022-09-10T12:20:42.456Z,77.47
2022-09-10T12:23:29.392Z,79.04
2022-09-10T12:26:11.583Z,79.91
2022-09-10T12:28:42.140Z,79.89
2022-09-10T12:31:16.437Z,79.48
2022-09-10T12:34:22.217Z,77.73
2022-09-10T12:36:51.233Z,77.38
2022-09-10T12:39:27.734Z,77.00
2022-09-10T12:42:22.915Z,75.42
2022-09-10T12:45:13.540Z,72.83
2022-09-10T12:47:43.534Z,72.65
2022-09-10T12:50:44.014Z,73.58
2022-09-10T12:56:59.792Z,73.60
2022-09-10T13:00:06.681Z,72.73
2022-09-10T13:02:39.641Z,71.46
2022-09-10T13:05:26.684Z,71.80
2022-09-10T13:08:16.253Z,71.10
2022-09-10T13:10:50.162Z,70.62
2022-09-10T13:13:40.667Z,70.73
2022-09-10T13:16:19.430Z,70.54
2022-09-10T13:18:48.645Z,69.51
2022-09-10T13:21:26.538Z,69.20
2022-09-10T13:23:56.425Z,68.81
2022-09-10T13:26:48.666Z,68.48
2022-09-10T13:29:30.620Z,68.71
2022-09-10T13:32:08.392Z,68.41
2022-09-10T13:35:10.533Z,69.02
2022-09-10T13:38:22.561Z,69.99
2022-09-10T13:41:40.635Z,69.80
2022-09-10T13:44:25.943Z,69.20
2022-09-10T13:47:07.806Z,68.62
2022-09-10T13:49:42.204Z,68.49
2022-09-10T13:52:17.749Z,68.63
2022-09-10T13:54:52.840Z,68.11
2022-09-10T13:57:29.154Z,68.43
2022-09-10T14:00:10.238Z,67.29
2022-09-10T14:02:50.094Z,67.63
2022-09-10T14:05:48.068Z,68.67
2022-09-10T14:08:20.756Z,68.81
2022-09-10T14:11:07.596Z,68.99
2022-09-10T14:13:54.492Z,68.42
2022-09-10T14:16:53.885Z,69.09
2022-09-10T14:19:35.500Z,69.60
2022-09-10T14:22:10.053Z,68.74
2022-09-10T14:24:49.100Z,67.82
2022-09-10T14:27:25.967Z,68.44
2022-09-10T14:30:12.139Z,68.03
2022-09-10T14:32:42.152Z,67.97
2022-09-10T14:35:38.292Z,68.34
2022-09-10T14:38:31.312Z,68.41
2022-09-10T14:41:10.429Z,68.34
2022-09-10T14:43:40.842Z,68.27
2022-09-10T14:46:13.862Z,68.39
2022-09-10T14:48:45.253Z,68.37
2022-09-10T14:51:25.666Z,68.22
2022-09-10T14:54:04.409Z,67.59
2022-09-10T14:56:39.958Z,67.82
2022-09-10T14:59:23.642Z,67.82
2022-09-10T15:01:51.902Z,68.23
2022-09-10T15:04:27.897Z,68.54
2022-09-10T15:07:05.094Z,68.99
2022-09-10T15:09:33.437Z,68.51
2022-09-10T15:12:12.358Z,69.41
2022-09-10T15:14:54.661Z,68.60
2022-09-10T15:17:33.160Z,68.23
2022-09-10T15:20:05.502Z,68.59
2022-09-10T15:22:34.003Z,68.60
2022-09-10T15:25:11.852Z,69.17
2022-09-10T15:27:43.626Z,69.23
2022-09-10T15:30:13.596Z,69.39
2022-09-10T15:32:41.653Z,69.78
2022-09-10T15:35:12.508Z,69.99
2022-09-10T15:37:41.280Z,70.29
2022-09-10T15:40:16.538Z,70.50
2022-09-10T15:42:45.642Z,70.59
2022-09-10T15:45:16.442Z,70.62
2022-09-10T15:47:44.255Z,71.03
2022-09-10T15:50:14.753Z,71.30
2022-09-10T15:52:43.335Z,71.91
2022-09-10T15:55:14.991Z,72.67
2022-09-10T15:57:42.885Z,72.19
2022-09-10T16:00:23.355Z,71.95
2022-09-10T16:02:56.639Z,72.29
2022-09-10T16:05:29.237Z,72.24
2022-09-10T16:08:03.132Z,72.63
2022-09-10T16:10:31.979Z,72.46
2022-09-10T16:13:08.074Z,72.44
2022-09-10T16:15:40.203Z,72.48
2022-09-10T16:18:08.124Z,72.95
2022-09-10T16:20:39.689Z,73.31
2022-09-10T16:23:09.454Z,71.83
2022-09-10T16:25:37.454Z,71.90
2022-09-10T16:28:08.059Z,71.77
2022-09-10T16:30:40.112Z,72.60
2022-09-10T16:33:11.017Z,72.40
2022-09-10T16:35:38.875Z,71.62
2022-09-10T16:38:08.135Z,70.90
2022-09-10T16:40:37.184Z,70.46
2022-09-10T16:43:04.894Z,70.11
2022-09-10T16:45:36.783Z,69.69
2022-09-10T16:48:04.616Z,69.88
2022-09-10T16:50:33.532Z,69.22
2022-09-10T16:53:01.073Z,68.75
2022-09-10T16:55:30.069Z,68.57
2022-09-10T16:58:00.341Z,68.14
2022-09-10T17:00:28.360Z,68.66
2022-09-10T17:03:01.729Z,69.06
2022-09-10T17:05:31.641Z,68.40
2022-09-10T17:08:00.391Z,68.09
2022-09-10T17:10:31.652Z,67.58
2022-09-10T17:12:59.122Z,66.55
2022-09-10T17:15:29.085Z,66.02
2022-09-10T17:17:57.872Z,64.85
2022-09-10T17:20:32.798Z,64.75
2022-09-10T17:23:00.985Z,64.33
2022-09-10T17:25:47.891Z,64.30
2022-09-10T17:28:18.085Z,64.47
2022-09-10T17:30:51.944Z,64.73
2022-09-10T17:33:19.640Z,65.16
2022-09-10T17:35:57.955Z,63.52
2022-09-10T17:38:31.004Z,63.89
2022-09-10T17:41:01.564Z,62.88
2022-09-10T17:43:33.398Z,61.45
2022-09-10T17:46:08.560Z,61.54
2022-09-10T17:48:38.084Z,59.96
2022-09-10T17:51:17.634Z,58.88
2022-09-10T17:53:46.104Z,58.15
2022-09-10T17:56:16.090Z,58.37
2022-09-10T17:58:43.748Z,59.00
2022-09-10T18:01:22.498Z,60.33
2022-09-10T18:03:53.930Z,61.59
2022-09-10T18:06:29.451Z,62.68
2022-09-10T18:09:01.809Z,63.72
2022-09-10T18:11:36.538Z,64.93
2022-09-10T18:14:05.265Z,65.25
2022-09-10T18:16:36.427Z,66.31
2022-09-10T18:19:13.009Z,66.29
2022-09-10T18:21:46.374Z,66.17
2022-09-10T18:24:21.336Z,66.25
2022-09-10T18:26:50.935Z,66.30
2022-09-10T18:29:27.970Z,65.78
2022-09-10T18:32:01.449Z,64.68
2022-09-10T18:34:31.236Z,65.29
2022-09-10T18:37:04.298Z,65.93
2022-09-10T18:39:33.683Z,65.39
2022-09-10T18:42:03.648Z,65.65
2022-09-10T18:44:34.373Z,65.72
2022-09-10T18:47:27.873Z,64.21
2022-09-10T18:50:02.191Z,65.32
2022-09-10T18:52:36.023Z,64.74
2022-09-10T18:55:04.142Z,62.84
2022-09-10T18:57:32.263Z,62.70
2022-09-10T19:00:02.179Z,62.34
2022-09-10T19:02:32.918Z,62.26
2022-09-10T19:05:12.176Z,62.02
2022-09-10T19:07:46.386Z,62.69
2022-09-10T19:10:14.470Z,64.40
2022-09-10T19:12:42.135Z,68.05
2022-09-10T19:15:12.741Z,72.08
2022-09-10T19:17:40.508Z,71.90
2022-09-10T19:20:10.961Z,71.10
2022-09-10T19:22:39.252Z,72.78
2022-09-10T19:25:07.124Z,73.69
2022-09-10T19:27:35.509Z,76.68
2022-09-10T19:30:13.491Z,75.90
2022-09-10T19:32:41.758Z,71.17
2022-09-10T19:35:13.930Z,70.16
2022-09-10T19:37:47.208Z,69.82
2022-09-10T19:40:14.721Z,68.58
2022-09-10T19:42:42.420Z,67.62
2022-09-10T19:45:10.363Z,67.94
2022-09-10T19:47:39.594Z,66.95
2022-09-10T19:50:07.157Z,66.52
2022-09-10T19:52:37.830Z,66.49
2022-09-10T19:55:05.675Z,65.56
2022-09-10T19:57:43.006Z,62.81
2022-09-10T20:00:24.768Z,61.20
2022-09-10T20:03:02.375Z,61.07
2022-09-10T20:05:32.333Z,61.17
2022-09-10T20:08:00.589Z,59.47
2022-09-10T20:10:28.297Z,58.19
2022-09-10T20:12:56.807Z,57.96
2022-09-10T20:15:24.872Z,57.18
2022-09-10T20:17:53.223Z,56.40
2022-09-10T20:20:21.008Z,56.41
2022-09-10T20:22:51.379Z,57.13
2022-09-10T20:25:19.091Z,55.96
2022-09-10T20:27:47.010Z,54.69
2022-09-10T20:30:14.544Z,54.74
2022-09-10T20:32:42.283Z,55.41
2022-09-10T20:35:10.905Z,55.71
2022-09-10T20:37:38.288Z,54.90
2022-09-10T20:40:08.171Z,52.50
2022-09-10T20:42:35.840Z,50.52
2022-09-10T20:45:04.322Z,49.21
2022-09-10T20:47:31.804Z,48.18
2022-09-10T20:49:59.208Z,45.86
2022-09-10T20:52:29.603Z,45.67
2022-09-10T20:54:57.242Z,44.79
2022-09-10T20:57:28.651Z,44.75
2022-09-10T20:59:56.814Z,44.61
2022-09-10T21:02:24.854Z,44.74
2022-09-10T21:04:54.813Z,45.03
2022-09-10T21:07:23.643Z,44.54
2022-09-10T21:09:57.559Z,44.46
2022-09-10T21:12:27.490Z,44.52
2022-09-10T21:14:55.644Z,44.23
2022-09-10T21:17:24.254Z,43.74
2022-09-10T21:19:51.743Z,44.31
2022-09-10T21:22:20.319Z,44.24
2022-09-10T21:24:49.239Z,44.59
2022-09-10T21:27:16.655Z,44.50
2022-09-10T21:29:45.300Z,44.66
2022-09-10T21:32:12.658Z,44.82
2022-09-10T21:34:40.439Z,44.61
2022-09-10T21:37:08.445Z,44.34
2022-09-10T21:39:36.092Z,44.00
2022-09-10T21:42:05.396Z,44.27
2022-09-10T21:44:36.680Z,44.10
2022-09-10T21:47:11.158Z,43.52
2022-09-10T21:49:40.304Z,43.59
2022-09-10T21:52:11.151Z,43.29
2022-09-10T21:54:38.976Z,43.45
2022-09-10T21:57:11.638Z,42.32
2022-09-10T21:59:41.659Z,42.48
2022-09-10T22:02:11.197Z,42.79
2022-09-10T22:04:41.623Z,43.24
2022-09-10T22:07:10.720Z,43.26
2022-09-10T22:09:39.102Z,42.64
2022-09-10T22:12:10.450Z,42.53
2022-09-10T22:14:38.525Z,42.22
2022-09-10T22:17:06.221Z,41.94
2022-09-10T22:19:33.843Z,41.72
2022-09-10T22:22:02.733Z,41.48
2022-09-10T22:24:30.106Z,41.53
2022-09-10T22:26:59.753Z,41.82
2022-09-10T22:29:30.173Z,41.29
2022-09-10T22:31:57.758Z,40.91
2022-09-10T22:34:25.501Z,40.96
2022-09-10T22:36:52.757Z,40.66
2022-09-10T22:39:21.479Z,40.80
2022-09-10T22:41:51.561Z,41.18
2022-09-10T22:44:25.154Z,41.50
2022-09-10T22:46:52.703Z,42.14
2022-09-10T22:49:21.958Z,42.73
2022-09-10T22:51:49.667Z,42.56
2022-09-10T22:54:17.630Z,42.81
2022-09-10T22:56:45.269Z,42.86
2022-09-10T22:59:14.320Z,42.94
2022-09-10T23:01:43.503Z,42.67
2022-09-10T23:04:15.613Z,42.73
2022-09-10T23:06:47.691Z,42.89
2022-09-10T23:09:19.436Z,42.75
2022-09-10T23:11:46.873Z,42.21
2022-09-10T23:14:17.913Z,42.23
2022-09-10T23:16:48.703Z,42.09
2022-09-10T23:19:22.117Z,42.62
2022-09-10T23:21:52.495Z,42.11
2022-09-10T23:24:27.019Z,42.24
2022-09-10T23:26:55.387Z,42.10
2022-09-10T23:29:24.260Z,42.46
2022-09-10T23:31:54.453Z,42.52
2022-09-10T23:34:22.319Z,42.90
2022-09-10T23:36:50.108Z,43.15
2022-09-10T23:39:22.001Z,43.71
2022-09-10T23:41:52.128Z,43.71
2022-09-10T23:44:20.441Z,43.68
2022-09-10T23:46:48.189Z,43.50
2022-09-10T23:49:16.032Z,43.77
2022-09-10T23:51:44.642Z,43.61
2022-09-10T23:54:12.192Z,43.88
2022-09-10T23:56:40.255Z,43.77
2022-09-10T23:59:08.321Z,44.05
